createdAt,value
2023-02-11T00:00:56.462Z,17.60
2023-02-11T00:03:22.199Z,17.60
2023-02-11T00:06:05.468Z,17.60
2023-02-11T00:08:31.160Z,17.59
2023-02-11T00:10:57.807Z,17.62
2023-02-11T00:13:24.158Z,17.60
2023-02-11T00:15:50.212Z,17.60
2023-02-11T00:18:16.252Z,17.61
2023-02-11T00:20:42.382Z,17.61
2023-02-11T00:23:08.214Z,17.61
2023-02-11T00:25:36.498Z,17.60
2023-02-11T00:28:02.218Z,17.61
2023-02-11T00:30:27.942Z,17.61
2023-02-11T00:32:53.613Z,17.60
2023-02-11T00:35:19.319Z,17.60
2023-02-11T00:37:44.940Z,17.61
2023-02-11T00:40:10.924Z,17.60
2023-02-11T00:42:36.721Z,17.61
2023-02-11T00:45:03.005Z,17.60
2023-02-11T00:47:28.783Z,17.62
2023-02-11T00:49:54.423Z,17.60
2023-02-11T00:52:20.147Z,17.61
2023-02-11T00:54:45.799Z,17.59
2023-02-11T00:57:11.454Z,17.60
2023-02-11T00:59:37.142Z,17.60
2023-02-11T01:02:02.784Z,17.59
2023-02-11T01:04:28.464Z,17.60
2023-02-11T01:06:54.125Z,17.60
2023-02-11T01:09:20.379Z,17.60
2023-02-11T01:11:46.454Z,17.59
2023-02-11T01:14:12.195Z,17.59
2023-02-11T01:16:37.875Z,17.59
2023-02-11T01:19:03.728Z,17.60
2023-02-11T01:21:29.381Z,17.61
2023-02-11T01:23:55.027Z,17.60
2023-02-11T01:26:20.719Z,17.60
2023-02-11T01:28:46.388Z,17.60
2023-02-11T01:31:12.182Z,17.61
2023-02-11T01:33:37.945Z,17.59
2023-02-11T01:36:04.805Z,17.60
2023-02-11T01:38:31.489Z,17.59
2023-02-11T01:41:01.192Z,17.60
2023-02-11T01:43:35.753Z,17.59
2023-02-11T01:46:24.152Z,17.59
2023-02-11T01:48:54.038Z,17.60
2023-02-11T01:51:23.002Z,17.60
2023-02-11T01:54:09.394Z,17.60
2023-02-11T01:56:57.870Z,17.60
2023-02-11T01:59:28.326Z,17.60
2023-02-11T02:01:58.628Z,17.60
2023-02-11T02:04:30.470Z,17.60
2023-02-11T02:07:02.501Z,17.60
2023-02-11T02:09:30.996Z,17.60
2023-02-11T02:11:56.546Z,17.60
2023-02-11T02:14:22.251Z,17.59
2023-02-11T02:16:47.961Z,17.60
2023-02-11T02:19:38.514Z,17.59
2023-02-11T02:22:15.395Z,17.59
2023-02-11T02:25:20.870Z,17.60
2023-02-11T02:27:54.747Z,17.60
2023-02-11T02:30:55.127Z,17.59
2023-02-11T02:33:50.729Z,17.61
2023-02-11T02:36:22.964Z,17.59
2023-02-11T02:39:00.054Z,17.59
2023-02-11T02:41:29.201Z,17.60
2023-02-11T02:43:54.931Z,17.60
2023-02-11T02:46:24.463Z,17.59
2023-02-11T02:48:52.420Z,17.59
2023-02-11T02:51:47.966Z,17.62
2023-02-11T02:54:53.424Z,17.59
2023-02-11T02:57:47.969Z,17.59
2023-02-11T03:00:23.597Z,17.60
2023-02-11T03:02:58.165Z,17.61
2023-02-11T03:06:01.051Z,17.60
2023-02-11T03:08:37.657Z,17.60
2023-02-11T03:11:04.794Z,17.59
2023-02-11T03:13:32.848Z,17.60
2023-02-11T03:16:01.565Z,17.61
2023-02-11T03:18:28.249Z,17.60
2023-02-11T03:20:53.974Z,17.59
2023-02-11T03:23:24.480Z,17.59
2023-02-11T03:25:55.640Z,17.59
2023-02-11T03:28:43.787Z,17.58
2023-02-11T03:31:20.838Z,17.59
2023-02-11T03:34:11.868Z,17.59
2023-02-11T03:36:45.196Z,17.59
2023-02-11T03:39:13.576Z,17.60
2023-02-11T03:41:40.392Z,17.58
2023-02-11T03:44:06.781Z,17.60
2023-02-11T03:46:35.834Z,17.59
2023-02-11T03:49:05.861Z,17.59
2023-02-11T03:51:32.238Z,17.60
2023-02-11T03:53:59.727Z,17.59
2023-02-11T03:56:28.375Z,17.60
2023-02-11T03:58:54.097Z,17.60
2023-02-11T04:01:19.879Z,17.60
2023-02-11T04:03:45.582Z,17.59
2023-02-11T04:06:11.257Z,17.59
2023-02-11T04:08:36.893Z,17.60
2023-02-11T04:11:02.625Z,17.61
2023-02-11T04:13:29.200Z,17.60
2023-02-11T04:15:55.091Z,17.59
2023-02-11T04:18:20.740Z,17.60
2023-02-11T04:20:46.827Z,17.60
2023-02-11T04:23:12.453Z,17.60
2023-02-11T04:25:38.151Z,17.59
2023-02-11T04:28:03.854Z,17.59
2023-02-11T04:30:29.536Z,17.60
2023-02-11T04:32:55.178Z,17.59
2023-02-11T04:35:21.019Z,17.60
2023-02-11T04:37:46.672Z,17.60
2023-02-11T04:40:12.414Z,17.61
2023-02-11T04:42:38.087Z,17.60
2023-02-11T04:45:03.839Z,17.60
2023-02-11T04:47:29.590Z,17.60
2023-02-11T04:49:55.379Z,17.60
2023-02-11T04:52:21.016Z,17.60
2023-02-11T04:54:46.699Z,17.60
2023-02-11T04:57:12.348Z,17.60
2023-02-11T04:59:38.142Z,17.60
2023-02-11T05:02:03.806Z,17.59
2023-02-11T05:04:29.549Z,17.61
2023-02-11T05:06:56.594Z,17.60
2023-02-11T05:09:23.964Z,17.60
2023-02-11T05:11:49.612Z,17.60
2023-02-11T05:14:15.246Z,17.60
2023-02-11T05:16:41.075Z,17.60
2023-02-11T05:19:06.767Z,17.60
2023-02-11T05:21:32.625Z,17.60
2023-02-11T05:23:58.625Z,17.62
2023-02-11T05:26:24.508Z,17.60
2023-02-11T05:28:50.200Z,17.62
2023-02-11T05:31:16.064Z,17.60
2023-02-11T05:33:42.337Z,17.60
2023-02-11T05:36:09.779Z,17.61
2023-02-11T05:38:36.242Z,17.60
2023-02-11T05:41:03.084Z,17.60
2023-02-11T05:43:28.724Z,17.59
2023-02-11T05:45:54.822Z,17.59
2023-02-11T05:48:20.521Z,17.60
2023-02-11T05:50:46.182Z,17.58
2023-02-11T05:53:12.033Z,17.60
2023-02-11T05:55:38.005Z,17.60
2023-02-11T05:58:03.839Z,17.60
2023-02-11T06:00:29.622Z,17.60
2023-02-11T06:02:55.621Z,17.60
2023-02-11T06:05:21.353Z,17.60
2023-02-11T06:07:46.998Z,17.60
2023-02-11T06:10:12.654Z,17.61
2023-02-11T06:12:38.428Z,17.59
2023-02-11T06:15:05.447Z,17.61
2023-02-11T06:17:32.778Z,17.61
2023-02-11T06:19:59.277Z,17.61
2023-02-11T06:22:25.569Z,17.59
2023-02-11T06:25:01.247Z,17.60
2023-02-11T06:27:27.599Z,17.60
2023-02-11T06:29:53.248Z,17.60
2023-02-11T06:32:39.384Z,17.60
2023-02-11T06:35:05.042Z,17.60
2023-02-11T06:37:30.707Z,17.61
2023-02-11T06:39:56.357Z,17.61
2023-02-11T06:42:22.097Z,17.60
2023-02-11T06:44:47.739Z,17.60
2023-02-11T06:47:13.396Z,17.62
2023-02-11T06:49:39.085Z,17.61
2023-02-11T06:52:04.769Z,17.62
2023-02-11T06:54:30.436Z,17.61
2023-02-11T06:56:56.073Z,17.60
2023-02-11T06:59:21.706Z,17.60
2023-02-11T07:01:47.399Z,17.61
2023-02-11T07:04:13.960Z,17.61
2023-02-11T07:06:40.156Z,17.61
2023-02-11T07:09:05.999Z,17.60
2023-02-11T07:11:31.772Z,17.60
2023-02-11T07:14:03.480Z,17.60
2023-02-11T07:16:29.362Z,17.60
2023-02-11T07:18:55.038Z,17.60
2023-02-11T07:21:21.677Z,17.61
2023-02-11T07:23:47.811Z,17.62
2023-02-11T07:26:16.438Z,17.60
2023-02-11T07:28:42.729Z,17.60
2023-02-11T07:31:15.965Z,17.61
2023-02-11T07:33:42.207Z,17.61
2023-02-11T07:36:09.618Z,17.62
2023-02-11T07:38:35.908Z,17.61
2023-02-11T07:41:03.974Z,17.61
2023-02-11T07:47:45.002Z,17.60
2023-02-11T07:50:10.650Z,17.60
2023-02-11T07:52:36.343Z,17.60
2023-02-11T07:55:04.706Z,17.63
2023-02-11T07:57:30.551Z,17.62
2023-02-11T07:59:56.240Z,17.61
2023-02-11T08:02:22.044Z,17.61
2023-02-11T08:04:47.696Z,17.60
2023-02-11T08:07:16.144Z,17.62
2023-02-11T08:09:41.696Z,17.62
2023-02-11T08:12:07.334Z,17.61
2023-02-11T08:14:32.970Z,17.62
2023-02-11T08:16:58.666Z,17.63
2023-02-11T08:19:24.299Z,17.60
2023-02-11T08:21:49.978Z,17.62
2023-02-11T08:24:15.750Z,17.62
2023-02-11T08:26:41.593Z,17.62
2023-02-11T08:29:10.438Z,17.60
2023-02-11T08:31:38.785Z,17.61
2023-02-11T08:34:04.843Z,17.61
2023-02-11T08:36:33.810Z,17.63
2023-02-11T08:39:20.753Z,17.62
2023-02-11T08:41:48.504Z,17.62
2023-02-11T08:44:14.147Z,17.60
2023-02-11T08:46:39.805Z,17.61
2023-02-11T08:49:05.448Z,17.62
2023-02-11T08:51:31.453Z,17.60
2023-02-11T08:53:57.806Z,17.62
2023-02-11T08:56:24.101Z,17.62
2023-02-11T08:58:50.129Z,17.62
2023-02-11T09:01:21.066Z,17.61
2023-02-11T09:03:48.168Z,17.62
2023-02-11T09:06:14.056Z,17.63
2023-02-11T09:08:42.866Z,17.62
2023-02-11T09:11:10.473Z,17.62
2023-02-11T09:13:36.731Z,17.62
2023-02-11T09:16:04.502Z,17.62
2023-02-11T09:18:30.830Z,17.61
2023-02-11T09:21:05.974Z,17.62
2023-02-11T09:23:33.586Z,17.63
2023-02-11T09:26:10.016Z,17.62
2023-02-11T09:28:35.829Z,17.64
2023-02-11T09:31:06.421Z,17.62
2023-02-11T09:33:32.335Z,17.62
2023-02-11T09:36:02.358Z,17.61
2023-02-11T09:38:28.378Z,17.62
2023-02-11T09:40:54.015Z,17.60
2023-02-11T09:43:22.503Z,17.63
2023-02-11T09:45:48.434Z,17.62
2023-02-11T09:48:18.159Z,17.62
2023-02-11T09:50:47.283Z,17.62
2023-02-11T09:53:19.560Z,17.62
2023-02-11T09:55:47.500Z,17.62
2023-02-11T09:58:15.671Z,17.63
2023-02-11T10:01:04.747Z,17.63
2023-02-11T10:03:41.040Z,17.62
2023-02-11T10:06:31.628Z,17.63
2023-02-11T10:09:20.582Z,17.61
2023-02-11T10:12:16.680Z,17.61
2023-02-11T10:14:53.915Z,17.62
2023-02-11T10:17:45.594Z,17.63
2023-02-11T10:20:33.031Z,17.61
2023-02-11T10:23:00.906Z,17.62
2023-02-11T10:25:34.110Z,17.61
2023-02-11T10:28:00.825Z,17.62
2023-02-11T10:30:31.636Z,17.63
2023-02-11T10:33:03.923Z,17.62
2023-02-11T10:35:30.768Z,17.62
2023-02-11T10:37:56.428Z,17.62
2023-02-11T10:40:25.847Z,17.63
2023-02-11T10:42:55.667Z,17.63
2023-02-11T10:45:46.931Z,17.62
2023-02-11T10:48:50.682Z,17.63
2023-02-11T10:51:21.953Z,17.64
2023-02-11T10:54:13.768Z,17.62
2023-02-11T10:56:45.273Z,17.63
2023-02-11T10:59:21.503Z,17.63
2023-02-11T11:01:50.789Z,17.63
2023-02-11T11:04:38.170Z,17.63
2023-02-11T11:07:26.748Z,17.63
2023-02-11T11:10:01.655Z,17.64
2023-02-11T11:12:47.969Z,17.64
2023-02-11T11:15:24.808Z,17.63
2023-02-11T11:18:20.920Z,17.62
2023-02-11T11:20:57.759Z,17.63
2023-02-11T11:23:24.173Z,17.63
2023-02-11T11:26:10.920Z,17.64
2023-02-11T11:28:42.592Z,17.63
2023-02-11T11:31:14.350Z,17.63
2023-02-11T11:33:42.641Z,17.63
2023-02-11T11:36:10.698Z,17.64
2023-02-11T11:38:43.466Z,17.63
2023-02-11T11:41:15.110Z,17.63
2023-02-11T11:43:53.678Z,17.63
2023-02-11T11:46:24.101Z,17.63
2023-02-11T11:48:51.086Z,17.64
2023-02-11T11:51:16.754Z,17.64
2023-02-11T11:53:55.562Z,17.62
2023-02-11T11:56:24.446Z,17.63
2023-02-11T11:58:50.243Z,17.63
2023-02-11T12:01:46.345Z,17.64
2023-02-11T12:04:22.684Z,17.64
2023-02-11T12:07:23.974Z,17.63
2023-02-11T12:13:07.943Z,17.66
2023-02-11T12:15:51.910Z,17.67
2023-02-11T12:18:37.817Z,17.67
2023-02-11T12:21:33.328Z,17.64
2023-02-11T12:24:23.737Z,17.65
2023-02-11T12:26:57.205Z,17.64
2023-02-11T12:30:01.345Z,17.65
2023-02-11T12:32:38.527Z,17.64
2023-02-11T12:35:19.370Z,17.64
2023-02-11T12:38:03.772Z,17.64
2023-02-11T12:40:40.478Z,17.65
2023-02-11T12:43:23.649Z,17.64
2023-02-11T12:46:01.803Z,17.65
2023-02-11T12:48:58.522Z,17.65
2023-02-11T12:56:58.339Z,17.68
2023-02-11T12:59:49.466Z,17.69
2023-02-11T13:02:24.113Z,17.67
2023-02-11T13:04:53.540Z,17.65
2023-02-11T13:07:26.062Z,17.65
2023-02-11T13:09:59.113Z,17.66
2023-02-11T13:12:46.527Z,17.64
2023-02-11T13:15:17.614Z,17.65
2023-02-11T13:17:58.079Z,17.65
2023-02-11T13:20:31.141Z,17.65
2023-02-11T13:23:13.646Z,17.66
2023-02-11T13:25:45.875Z,17.65
2023-02-11T13:28:28.860Z,17.64
2023-02-11T13:31:01.919Z,17.65
2023-02-11T13:33:38.530Z,17.66
2023-02-11T13:36:09.644Z,17.65
2023-02-11T13:38:35.758Z,17.64
2023-02-11T13:41:05.902Z,17.65
2023-02-11T13:43:34.380Z,17.65
2023-02-11T13:46:00.667Z,17.65
2023-02-11T13:48:30.160Z,17.64
2023-02-11T13:51:02.388Z,17.64
2023-02-11T13:53:28.729Z,17.65
2023-02-11T13:56:12.371Z,17.65
2023-02-11T13:58:53.107Z,17.67
2023-02-11T14:04:44.183Z,17.65
2023-02-11T14:07:50.935Z,17.65
2023-02-11T14:10:46.412Z,17.64
2023-02-11T14:13:23.553Z,17.64
2023-02-11T14:16:03.699Z,17.64
2023-02-11T14:26:49.266Z,17.69
2023-02-11T14:29:21.624Z,17.68
2023-02-11T14:32:18.993Z,17.66
2023-02-11T14:34:52.822Z,17.67
2023-02-11T14:37:48.614Z,17.66
2023-02-11T14:40:26.289Z,17.66
2023-02-11T14:42:53.574Z,17.65
2023-02-11T14:45:24.042Z,17.65
2023-02-11T14:47:59.448Z,17.65
2023-02-11T14:50:27.878Z,17.65
2023-02-11T14:52:55.083Z,17.65
2023-02-11T14:55:29.676Z,17.66
2023-02-11T14:58:17.590Z,17.66
2023-02-11T15:01:02.663Z,17.65
2023-02-11T15:03:32.479Z,17.66
2023-02-11T15:06:20.811Z,17.67
2023-02-11T15:08:47.655Z,17.66
2023-02-11T15:11:15.341Z,17.66
2023-02-11T15:13:47.208Z,17.66
2023-02-11T15:16:17.437Z,17.66
2023-02-11T15:18:47.605Z,17.66
2023-02-11T15:21:19.775Z,17.67
2023-02-11T15:23:55.785Z,17.65
2023-02-11T15:26:21.548Z,17.65
2023-02-11T15:28:51.119Z,17.66
2023-02-11T15:31:19.941Z,17.66
2023-02-11T15:33:45.889Z,17.65
2023-02-11T15:36:13.159Z,17.67
2023-02-11T15:38:40.008Z,17.67
2023-02-11T15:41:06.723Z,17.67
2023-02-11T15:43:45.681Z,17.67
2023-02-11T15:46:14.742Z,17.66
2023-02-11T15:48:46.513Z,17.67
2023-02-11T15:51:22.258Z,17.67
2023-02-11T15:53:52.317Z,17.67
2023-02-11T15:56:24.393Z,17.67
2023-02-11T15:58:51.794Z,17.66
2023-02-11T16:01:17.525Z,17.66
2023-02-11T16:03:43.417Z,17.66
2023-02-11T16:06:39.278Z,17.68
2023-02-11T16:09:22.412Z,17.68
2023-02-11T16:14:29.675Z,17.67
2023-02-11T16:16:58.188Z,17.66
2023-02-11T16:19:25.613Z,17.68
2023-02-11T16:21:52.338Z,17.66
2023-02-11T16:24:21.590Z,17.66
2023-02-11T16:26:49.707Z,17.68
2023-02-11T16:29:19.407Z,17.68
2023-02-11T16:31:46.759Z,17.67
2023-02-11T16:34:15.095Z,17.68
2023-02-11T16:36:40.979Z,17.68
2023-02-11T16:39:06.890Z,17.68
2023-02-11T16:41:32.528Z,17.68
2023-02-11T16:43:58.172Z,17.68
2023-02-11T16:46:24.150Z,17.68
2023-02-11T16:48:50.143Z,17.68
2023-02-11T16:51:15.841Z,17.67
2023-02-11T16:53:41.484Z,17.68
2023-02-11T16:56:12.351Z,17.68
2023-02-11T16:58:38.000Z,17.67
2023-02-11T17:01:03.750Z,17.67
2023-02-11T17:03:30.514Z,17.67
2023-02-11T17:05:56.204Z,17.67
2023-02-11T17:08:21.915Z,17.67
2023-02-11T17:10:47.767Z,17.68
2023-02-11T17:13:13.392Z,17.67
2023-02-11T17:15:39.035Z,17.67
2023-02-11T17:18:04.796Z,17.66
2023-02-11T17:20:30.440Z,17.66
2023-02-11T17:22:56.938Z,17.68
2023-02-11T17:25:23.731Z,17.67
2023-02-11T17:27:51.864Z,17.69
2023-02-11T17:30:18.645Z,17.68
2023-02-11T17:32:44.345Z,17.68
2023-02-11T17:35:10.017Z,17.67
2023-02-11T17:37:35.667Z,17.68
2023-02-11T17:40:01.372Z,17.67
2023-02-11T17:42:28.272Z,17.67
2023-02-11T17:44:53.909Z,17.68
2023-02-11T17:47:19.545Z,17.67
2023-02-11T17:49:45.224Z,17.68
2023-02-11T17:52:10.868Z,17.68
2023-02-11T17:54:37.223Z,17.68
2023-02-11T17:57:02.967Z,17.67
2023-02-11T17:59:34.428Z,17.68
2023-02-11T18:02:01.743Z,17.70
2023-02-11T18:04:27.755Z,17.69
2023-02-11T18:06:53.440Z,17.69
2023-02-11T18:09:19.246Z,17.70
2023-02-11T18:11:45.192Z,17.69
2023-02-11T18:14:11.114Z,17.69
2023-02-11T18:16:38.409Z,17.69
2023-02-11T18:19:05.778Z,17.69
2023-02-11T18:21:31.719Z,17.69
2023-02-11T18:23:57.766Z,17.68
2023-02-11T18:26:25.485Z,17.69
2023-02-11T18:28:51.855Z,17.69
2023-02-11T18:31:17.895Z,17.68
2023-02-11T18:33:44.187Z,17.69
2023-02-11T18:36:12.315Z,17.68
2023-02-11T18:38:38.287Z,17.69
2023-02-11T18:41:04.641Z,17.70
2023-02-11T18:43:32.716Z,17.69
2023-02-11T18:45:58.773Z,17.69
2023-02-11T18:48:27.737Z,17.68
2023-02-11T18:50:54.043Z,17.68
2023-02-11T18:53:19.769Z,17.69
2023-02-11T18:55:45.992Z,17.69
2023-02-11T18:58:11.691Z,17.70
2023-02-11T19:00:40.169Z,17.69
2023-02-11T19:03:05.904Z,17.69
2023-02-11T19:05:32.625Z,17.69
2023-02-11T19:07:59.412Z,17.69
2023-02-11T19:10:25.751Z,17.68
2023-02-11T19:12:55.413Z,17.70
2023-02-11T19:15:21.931Z,17.69
2023-02-11T19:17:48.048Z,17.70
2023-02-11T19:20:13.836Z,17.70
2023-02-11T19:22:39.479Z,17.69
2023-02-11T19:25:06.312Z,17.70
2023-02-11T19:27:32.452Z,17.69
2023-02-11T19:29:58.106Z,17.69
2023-02-11T19:32:23.778Z,17.70
2023-02-11T19:34:50.846Z,17.70
2023-02-11T19:37:16.860Z,17.69
2023-02-11T19:39:42.737Z,17.70
2023-02-11T19:42:08.591Z,17.71
2023-02-11T19:44:34.357Z,17.69
2023-02-11T19:47:00.374Z,17.70
2023-02-11T19:49:26.082Z,17.70
2023-02-11T19:51:53.210Z,17.70
2023-02-11T19:54:19.570Z,17.70
2023-02-11T19:56:46.498Z,17.69
2023-02-11T19:59:13.167Z,17.69
2023-02-11T20:01:38.983Z,17.71
2023-02-11T20:04:04.909Z,17.72
2023-02-11T20:06:31.672Z,17.70
2023-02-11T20:09:00.036Z,17.70
2023-02-11T20:11:27.469Z,17.70
2023-02-11T20:13:53.553Z,17.71
2023-02-11T20:16:20.799Z,17.71
2023-02-11T20:18:47.781Z,17.72
2023-02-11T20:21:16.829Z,17.70
2023-02-11T20:23:45.191Z,17.71
2023-02-11T20:26:13.156Z,17.71
2023-02-11T20:28:38.795Z,17.71
2023-02-11T20:31:04.794Z,17.70
2023-02-11T20:33:31.071Z,17.71
2023-02-11T20:35:58.634Z,17.71
2023-02-11T20:38:24.615Z,17.72
2023-02-11T20:40:50.429Z,17.71
2023-02-11T20:43:16.841Z,17.73
2023-02-11T20:45:42.700Z,17.72
2023-02-11T20:48:08.351Z,17.71
2023-02-11T20:50:34.060Z,17.70
2023-02-11T20:52:59.704Z,17.71
2023-02-11T20:55:25.694Z,17.71
2023-02-11T20:57:51.364Z,17.72
2023-02-11T21:00:17.527Z,17.72
2023-02-11T21:02:43.186Z,17.72
2023-02-11T21:05:10.699Z,17.72
2023-02-11T21:07:39.057Z,17.71
2023-02-11T21:10:05.429Z,17.72
2023-02-11T21:12:31.100Z,17.71
2023-02-11T21:14:57.141Z,17.72
2023-02-11T21:17:25.480Z,17.73
2023-02-11T21:19:51.301Z,17.70
2023-02-11T21:22:16.949Z,17.72
2023-02-11T21:24:42.595Z,17.72
2023-02-11T21:27:08.243Z,17.72
2023-02-11T21:29:36.663Z,17.72
2023-02-11T21:32:06.253Z,17.72
2023-02-11T21:34:31.933Z,17.71
2023-02-11T21:36:57.590Z,17.73
2023-02-11T21:39:23.220Z,17.71
2023-02-11T21:41:48.989Z,17.72
2023-02-11T21:44:14.727Z,17.73
2023-02-11T21:46:40.447Z,17.72
2023-02-11T21:49:06.155Z,17.71
2023-02-11T21:51:31.817Z,17.73
2023-02-11T21:54:00.395Z,17.72
2023-02-11T21:56:27.242Z,17.73
2023-02-11T21:58:54.004Z,17.72
2023-02-11T22:01:22.386Z,17.74
2023-02-11T22:03:48.056Z,17.74
2023-02-11T22:06:16.103Z,17.72
2023-02-11T22:08:41.816Z,17.72
2023-02-11T22:11:09.772Z,17.73
2023-02-11T22:13:36.192Z,17.73
2023-02-11T22:16:04.551Z,17.73
2023-02-11T22:18:30.352Z,17.73
2023-02-11T22:20:58.034Z,17.73
2023-02-11T22:23:23.670Z,17.72
2023-02-11T22:25:49.596Z,17.72
2023-02-11T22:28:15.280Z,17.73
2023-02-11T22:30:40.989Z,17.72
2023-02-11T22:33:06.673Z,17.72
2023-02-11T22:35:33.670Z,17.74
2023-02-11T22:37:59.775Z,17.73
2023-02-11T22:40:25.592Z,17.73
2023-02-11T22:42:51.238Z,17.73
2023-02-11T22:45:16.871Z,17.73
2023-02-11T22:47:42.523Z,17.72
2023-02-11T22:50:08.336Z,17.74
2023-02-11T22:52:35.370Z,17.74
2023-02-11T22:55:01.274Z,17.74
2023-02-11T22:57:26.932Z,17.73
2023-02-11T22:59:52.570Z,17.73
2023-02-11T23:02:18.360Z,17.73
2023-02-11T23:04:44.051Z,17.74
2023-02-11T23:07:10.051Z,17.73
2023-02-11T23:09:35.705Z,17.74
2023-02-11T23:12:01.363Z,17.73
2023-02-11T23:14:27.002Z,17.74
2023-02-11T23:16:52.664Z,17.74
2023-02-11T23:19:19.089Z,17.74
2023-02-11T23:21:44.768Z,17.73
2023-02-11T23:24:12.400Z,17.74
2023-02-11T23:26:38.981Z,17.74
2023-02-11T23:29:04.911Z,17.74
2023-02-11T23:31:33.336Z,17.74
2023-02-11T23:33:59.229Z,17.74
2023-02-11T23:36:24.964Z,17.74
2023-02-11T23:38:51.032Z,17.75
2023-02-11T23:41:16.778Z,17.74
2023-02-11T23:43:42.810Z,17.73
2023-02-11T23:46:08.630Z,17.73
2023-02-11T23:48:35.746Z,17.74
2023-02-11T23:51:01.576Z,17.74
2023-02-11T23:53:27.208Z,17.74
2023-02-11T23:55:53.309Z,17.73
2023-02-11T23:58:19.230Z,17.73
